sensor_id;sensor_type;location;lat;lon;timestamp;pressure;altitude;pressure_sealevel;temperature;humidity
62508;BME280;48556;51.972;4.624;2023-04-26T00:01:23;77541.28;;;-146.23;46.03
62508;BME280;48556;51.972;4.624;2023-04-26T00:03:51;77537.25;;;-146.23;45.65
62508;BME280;48556;51.972;4.624;2023-04-26T00:06:55;77513.16;;;-146.23;45.42
62508;BME280;48556;51.972;4.624;2023-04-26T00:09:44;77529.22;;;-146.23;45.04
62508;BME280;48556;51.972;4.624;2023-04-26T00:15:34;77523.19;;;-146.23;44.73
62508;BME280;48556;51.972;4.624;2023-04-26T00:19:24;77517.16;;;-146.23;44.54
62508;BME280;48556;51.972;4.624;2023-04-26T00:25:32;77549.31;;;-146.23;44.98
62508;BME280;48556;51.972;4.624;2023-04-26T00:32:17;77545.28;;;-146.23;44.77
62508;BME280;48556;51.972;4.624;2023-04-26T00:41:59;77593.50;;;-146.23;46.30
62508;BME280;48556;51.972;4.624;2023-04-26T00:44:26;77577.44;;;-146.23;46.21
62508;BME280;48556;51.972;4.624;2023-04-26T00:47:25;77593.50;;;-146.23;46.31
62508;BME280;48556;51.972;4.624;2023-04-26T00:50:08;77613.59;;;-146.23;46.56
62508;BME280;48556;51.972;4.624;2023-04-26T00:56:39;77633.69;;;-146.23;46.52
62508;BME280;48556;51.972;4.624;2023-04-26T00:59:49;77637.69;;;-146.23;46.32
62508;BME280;48556;51.972;4.624;2023-04-26T01:02:47;77637.69;;;-146.23;46.99
62508;BME280;48556;51.972;4.624;2023-04-26T01:06:15;77643.72;;;-146.23;47.13
62508;BME280;48556;51.972;4.624;2023-04-26T01:09:39;77649.75;;;-146.23;46.96
62508;BME280;48556;51.972;4.624;2023-04-26T01:12:23;77661.81;;;-146.23;46.75
62508;BME280;48556;51.972;4.624;2023-04-26T01:14:53;77683.91;;;-146.23;46.92
62508;BME280;48556;51.972;4.624;2023-04-26T01:17:56;77651.75;;;-146.23;47.14
62508;BME280;48556;51.972;4.624;2023-04-26T01:20:27;77665.81;;;-146.23;47.81
62508;BME280;48556;51.972;4.624;2023-04-26T01:23:03;77685.91;;;-146.23;48.09
62508;BME280;48556;51.972;4.624;2023-04-26T01:26:00;77695.97;;;-146.23;48.01
62508;BME280;48556;51.972;4.624;2023-04-26T01:29:20;77693.94;;;-146.23;47.79
62508;BME280;48556;51.972;4.624;2023-04-26T01:33:08;77683.91;;;-146.23;47.50
62508;BME280;48556;51.972;4.624;2023-04-26T01:36:18;77697.97;;;-146.23;47.89
62508;BME280;48556;51.972;4.624;2023-04-26T01:42:25;77704.00;;;-146.23;48.29
62508;BME280;48556;51.972;4.624;2023-04-26T01:45:46;77718.06;;;-146.23;48.41
62508;BME280;48556;51.972;4.624;2023-04-26T01:48:45;77730.13;;;-146.23;48.72
62508;BME280;48556;51.972;4.624;2023-04-26T01:51:57;77732.13;;;-146.23;48.51
62508;BME280;48556;51.972;4.624;2023-04-26T01:54:43;77716.06;;;-146.23;47.96
62508;BME280;48556;51.972;4.624;2023-04-26T01:57:12;77722.06;;;-146.23;48.29
62508;BME280;48556;51.972;4.624;2023-04-26T02:00:09;77720.06;;;-146.23;48.58
62508;BME280;48556;51.972;4.624;2023-04-26T02:03:20;77746.19;;;-146.23;49.21
62508;BME280;48556;51.972;4.624;2023-04-26T02:16:23;77782.34;;;-146.23;49.71
62508;BME280;48556;51.972;4.624;2023-04-26T02:19:47;77750.19;;;-146.23;50.03
62508;BME280;48556;51.972;4.624;2023-04-26T02:22:13;77766.28;;;-146.23;50.51
62508;BME280;48556;51.972;4.624;2023-04-26T02:32:14;77730.13;;;-146.23;49.10
62508;BME280;48556;51.972;4.624;2023-04-26T02:38:44;77738.16;;;-146.23;49.89
62508;BME280;48556;51.972;4.624;2023-04-26T02:41:48;77722.06;;;-146.23;49.88
62508;BME280;48556;51.972;4.624;2023-04-26T02:44:23;77722.06;;;-146.23;50.42
62508;BME280;48556;51.972;4.624;2023-04-26T02:47:02;77685.91;;;-146.23;49.53
62508;BME280;48556;51.972;4.624;2023-04-26T02:49:29;77699.97;;;-146.23;50.32
62508;BME280;48556;51.972;4.624;2023-04-26T02:52:03;77689.94;;;-146.23;50.04
62508;BME280;48556;51.972;4.624;2023-04-26T02:55:26;77665.81;;;-146.23;49.94
62508;BME280;48556;51.972;4.624;2023-04-26T03:01:42;77657.78;;;-146.23;50.14
62508;BME280;48556;51.972;4.624;2023-04-26T03:04:26;77643.72;;;-146.23;49.63
62508;BME280;48556;51.972;4.624;2023-04-26T03:06:57;77645.75;;;-146.23;49.68
62508;BME280;48556;51.972;4.624;2023-04-26T03:09:58;77651.75;;;-146.23;49.78
62508;BME280;48556;51.972;4.624;2023-04-26T03:15:53;77661.81;;;-146.23;49.65
62508;BME280;48556;51.972;4.624;2023-04-26T03:22:33;77665.81;;;-146.23;49.71
62508;BME280;48556;51.972;4.624;2023-04-26T03:25:07;77669.84;;;-146.23;49.75
62508;BME280;48556;51.972;4.624;2023-04-26T03:27:40;77659.81;;;-146.23;49.46
62508;BME280;48556;51.972;4.624;2023-04-26T03:30:08;77659.81;;;-146.23;49.18
62508;BME280;48556;51.972;4.624;2023-04-26T03:32:38;77647.75;;;-146.23;48.84
62508;BME280;48556;51.972;4.624;2023-04-26T03:35:27;77647.75;;;-146.23;48.71
62508;BME280;48556;51.972;4.624;2023-04-26T03:38:13;77659.81;;;-146.23;48.65
62508;BME280;48556;51.972;4.624;2023-04-26T03:44:26;77673.88;;;-146.23;48.69
62508;BME280;48556;51.972;4.624;2023-04-26T03:48:03;77657.78;;;-146.23;48.42
62508;BME280;48556;51.972;4.624;2023-04-26T03:51:39;77685.91;;;-146.23;48.74
62508;BME280;48556;51.972;4.624;2023-04-26T03:54:41;77704.00;;;-146.23;48.94
62508;BME280;48556;51.972;4.624;2023-04-26T03:57:23;77702.00;;;-146.23;49.71
62508;BME280;48556;51.972;4.624;2023-04-26T04:03:20;77730.13;;;-146.23;50.18
62508;BME280;48556;51.972;4.624;2023-04-26T04:06:00;77740.16;;;-146.23;50.09
62508;BME280;48556;51.972;4.624;2023-04-26T04:08:45;77744.19;;;-146.23;50.04
62508;BME280;48556;51.972;4.624;2023-04-26T04:11:39;77738.16;;;-146.23;49.91
62508;BME280;48556;51.972;4.624;2023-04-26T04:14:24;77738.16;;;-146.23;50.12
62508;BME280;48556;51.972;4.624;2023-04-26T04:17:36;77762.25;;;-146.23;50.48
62508;BME280;48556;51.972;4.624;2023-04-26T04:20:22;77752.22;;;-146.23;50.17
62508;BME280;48556;51.972;4.624;2023-04-26T04:23:08;77756.22;;;-146.23;49.70
62508;BME280;48556;51.972;4.624;2023-04-26T04:25:36;77766.28;;;-146.23;49.83
62508;BME280;48556;51.972;4.624;2023-04-26T04:28:22;77762.25;;;-146.23;50.26
62508;BME280;48556;51.972;4.624;2023-04-26T04:31:35;77742.16;;;-146.23;49.99
62508;BME280;48556;51.972;4.624;2023-04-26T04:34:34;77766.28;;;-146.23;50.46
62508;BME280;48556;51.972;4.624;2023-04-26T04:37:17;77734.13;;;-146.23;50.15
62508;BME280;48556;51.972;4.624;2023-04-26T04:39:46;77734.13;;;-146.23;49.79
62508;BME280;48556;51.972;4.624;2023-04-26T04:42:22;77736.13;;;-146.23;50.27
62508;BME280;48556;51.972;4.624;2023-04-26T04:45:16;77724.09;;;-146.23;50.86
62508;BME280;48556;51.972;4.624;2023-04-26T04:47:59;77704.00;;;-146.23;50.42
62508;BME280;48556;51.972;4.624;2023-04-26T04:50:24;77714.03;;;-146.23;50.38
62508;BME280;48556;51.972;4.624;2023-04-26T04:52:50;77693.94;;;-146.23;50.38
62508;BME280;48556;51.972;4.624;2023-04-26T04:55:31;77704.00;;;-146.23;50.52
62508;BME280;48556;51.972;4.624;2023-04-26T04:58:43;77691.94;;;-146.23;50.17
62508;BME280;48556;51.972;4.624;2023-04-26T05:01:18;77661.81;;;-146.23;50.11
62508;BME280;48556;51.972;4.624;2023-04-26T05:08:39;77629.66;;;-146.23;49.92
62508;BME280;48556;51.972;4.624;2023-04-26T05:11:19;77639.72;;;-146.23;49.94
62508;BME280;48556;51.972;4.624;2023-04-26T05:13:45;77627.66;;;-146.23;49.60
62508;BME280;48556;51.972;4.624;2023-04-26T05:16:49;77629.66;;;-146.23;49.59
62508;BME280;48556;51.972;4.624;2023-04-26T05:20:11;77599.53;;;-146.23;49.25
62508;BME280;48556;51.972;4.624;2023-04-26T05:23:24;77595.50;;;-146.23;49.22
62508;BME280;48556;51.972;4.624;2023-04-26T05:26:03;77605.56;;;-146.23;49.27
62508;BME280;48556;51.972;4.624;2023-04-26T05:29:13;77565.38;;;-146.23;49.32
62508;BME280;48556;51.972;4.624;2023-04-26T05:32:48;77575.44;;;-146.23;49.20
62508;BME280;48556;51.972;4.624;2023-04-26T05:35:32;77553.34;;;-146.23;49.18
62508;BME280;48556;51.972;4.624;2023-04-26T05:38:13;77545.28;;;-146.23;48.99
62508;BME280;48556;51.972;4.624;2023-04-26T05:40:39;77559.34;;;-146.23;49.17
62508;BME280;48556;51.972;4.624;2023-04-26T05:43:33;77577.44;;;-146.23;49.25
62508;BME280;48556;51.972;4.624;2023-04-26T05:46:08;77581.47;;;-146.23;49.12
62508;BME280;48556;51.972;4.624;2023-04-26T05:48:46;77605.56;;;-146.23;49.07
62508;BME280;48556;51.972;4.624;2023-04-26T05:54:37;77561.38;;;-146.23;48.22
62508;BME280;48556;51.972;4.624;2023-04-26T05:57:03;77511.16;;;-146.23;47.54
62508;BME280;48556;51.972;4.624;2023-04-26T05:59:43;77501.09;;;-146.23;47.35
62508;BME280;48556;51.972;4.624;2023-04-26T06:02:17;77503.09;;;-146.23;46.75
62508;BME280;48556;51.972;4.624;2023-04-26T06:04:43;77511.16;;;-146.23;45.57
62508;BME280;48556;51.972;4.624;2023-04-26T06:07:08;77501.09;;;-146.23;45.33
62508;BME280;48556;51.972;4.624;2023-04-26T06:13:52;77464.94;;;-146.23;43.04
62508;BME280;48556;51.972;4.624;2023-04-26T06:16:48;77523.19;;;-146.23;43.57
62508;BME280;48556;51.972;4.624;2023-04-26T06:30:13;58805.44;;;-146.23;100.00
62508;BME280;48556;51.972;4.624;2023-04-26T06:37:06;58805.44;;;-146.23;100.00
62508;BME280;48556;51.972;4.624;2023-04-26T06:43:59;58805.44;;;-146.23;100.00
62508;BME280;48556;51.972;4.624;2023-04-26T06:50:53;58805.44;;;-146.23;100.00
62508;BME280;48556;51.972;4.624;2023-04-26T07:12:20;58805.44;;;-146.23;100.00
62508;BME280;48556;51.972;4.624;2023-04-26T07:26:04;58805.44;;;-146.23;100.00
62508;BME280;48556;51.972;4.624;2023-04-26T07:32:51;58805.44;;;-146.23;100.00
62508;BME280;48556;51.972;4.624;2023-04-26T07:39:46;58805.44;;;-146.23;100.00
62508;BME280;48556;51.972;4.624;2023-04-26T07:46:13;58805.44;;;-146.23;100.00
62508;BME280;48556;51.972;4.624;2023-04-26T07:52:37;58805.44;;;-146.23;100.00
62508;BME280;48556;51.972;4.624;2023-04-26T07:59:18;58805.44;;;-146.23;100.00
62508;BME280;48556;51.972;4.624;2023-04-26T08:06:32;58805.44;;;-146.23;100.00
62508;BME280;48556;51.972;4.624;2023-04-26T08:20:26;58805.44;;;-146.23;100.00
62508;BME280;48556;51.972;4.624;2023-04-26T08:27:13;58805.44;;;-146.23;100.00
62508;BME280;48556;51.972;4.624;2023-04-26T08:34:21;58805.44;;;-146.23;100.00
62508;BME280;48556;51.972;4.624;2023-04-26T08:48:21;58805.44;;;-146.23;100.00
62508;BME280;48556;51.972;4.624;2023-04-26T08:55:00;58805.44;;;-146.23;100.00
62508;BME280;48556;51.972;4.624;2023-04-26T09:08:57;58805.44;;;-146.23;100.00
62508;BME280;48556;51.972;4.624;2023-04-26T09:15:59;58805.44;;;-146.23;100.00
62508;BME280;48556;51.972;4.624;2023-04-26T09:22:34;58805.44;;;-146.23;100.00
62508;BME280;48556;51.972;4.624;2023-04-26T09:36:10;58805.44;;;-146.23;100.00
62508;BME280;48556;51.972;4.624;2023-04-26T09:50:09;58805.44;;;-146.23;100.00
62508;BME280;48556;51.972;4.624;2023-04-26T09:56:57;58805.44;;;-146.23;100.00
62508;BME280;48556;51.972;4.624;2023-04-26T10:10:22;58805.44;;;-146.23;100.00
62508;BME280;48556;51.972;4.624;2023-04-26T10:16:51;58805.44;;;-146.23;100.00
62508;BME280;48556;51.972;4.624;2023-04-26T10:30:22;58805.44;;;-146.23;100.00
62508;BME280;48556;51.972;4.624;2023-04-26T10:55:49;77069.22;;;-146.23;30.55
62508;BME280;48556;51.972;4.624;2023-04-26T10:58:31;76950.72;;;-146.23;30.42
62508;BME280;48556;51.972;4.624;2023-04-26T11:01:41;77027.06;;;-146.23;30.68
62508;BME280;48556;51.972;4.624;2023-04-26T11:05:02;76924.63;;;-146.23;30.22
62508;BME280;48556;51.972;4.624;2023-04-26T11:07:36;76884.44;;;-146.23;29.76
62508;BME280;48556;51.972;4.624;2023-04-26T11:13:43;76741.84;;;-146.23;28.22
62508;BME280;48556;51.972;4.624;2023-04-26T11:20:17;76613.31;;;-146.23;27.98
62508;BME280;48556;51.972;4.624;2023-04-26T11:22:43;76651.47;;;-146.23;28.25
62508;BME280;48556;51.972;4.624;2023-04-26T11:29:28;76474.72;;;-146.23;26.90
62508;BME280;48556;51.972;4.624;2023-04-26T11:31:59;76536.97;;;-146.23;27.18
62508;BME280;48556;51.972;4.624;2023-04-26T11:34:58;76569.13;;;-146.23;26.85
62508;BME280;48556;51.972;4.624;2023-04-26T11:38:33;76633.38;;;-146.23;27.51
62508;BME280;48556;51.972;4.624;2023-04-26T11:41:43;76649.44;;;-146.23;28.13
62508;BME280;48556;51.972;4.624;2023-04-26T11:44:23;76794.06;;;-146.23;28.95
62508;BME280;48556;51.972;4.624;2023-04-26T11:54:02;77027.06;;;-146.23;30.85
62508;BME280;48556;51.972;4.624;2023-04-26T12:04:17;76890.47;;;-146.23;30.29
62508;BME280;48556;51.972;4.624;2023-04-26T12:06:47;76820.16;;;-146.23;29.57
62508;BME280;48556;51.972;4.624;2023-04-26T12:09:45;76836.25;;;-146.23;29.54
62508;BME280;48556;51.972;4.624;2023-04-26T12:18:57;76565.09;;;-146.23;27.91
62508;BME280;48556;51.972;4.624;2023-04-26T12:24:43;76199.59;;;-146.23;25.54
62508;BME280;48556;51.972;4.624;2023-04-26T12:31:09;76044.97;;;-146.23;24.76
62508;BME280;48556;51.972;4.624;2023-04-26T12:33:47;76034.94;;;-146.23;24.40
62508;BME280;48556;51.972;4.624;2023-04-26T12:36:29;76067.06;;;-146.23;24.70
62508;BME280;48556;51.972;4.624;2023-04-26T12:39:18;76117.25;;;-146.23;24.83
62508;BME280;48556;51.972;4.624;2023-04-26T12:41:57;76026.91;;;-146.23;24.51
62508;BME280;48556;51.972;4.624;2023-04-26T12:44:53;76067.06;;;-146.23;24.64
62508;BME280;48556;51.972;4.624;2023-04-26T12:47:26;76183.53;;;-146.23;25.22
62508;BME280;48556;51.972;4.624;2023-04-26T12:50:48;76348.22;;;-146.23;25.87
62508;BME280;48556;51.972;4.624;2023-04-26T12:53:32;76512.88;;;-146.23;27.30
62508;BME280;48556;51.972;4.624;2023-04-26T12:56:17;76581.16;;;-146.23;27.64
62508;BME280;48556;51.972;4.624;2023-04-26T12:59:13;76557.06;;;-146.23;26.72
62508;BME280;48556;51.972;4.624;2023-04-26T13:08:47;75914.44;;;-146.23;23.96
62508;BME280;48556;51.972;4.624;2023-04-26T13:11:13;75733.72;;;-146.23;23.14
62508;BME280;48556;51.972;4.624;2023-04-26T13:13:39;75675.50;;;-146.23;22.50
62508;BME280;48556;51.972;4.624;2023-04-26T13:16:05;75733.72;;;-146.23;22.75
62508;BME280;48556;51.972;4.624;2023-04-26T13:19:18;75842.16;;;-146.23;23.65
62508;BME280;48556;51.972;4.624;2023-04-26T13:21:45;75952.59;;;-146.23;23.65
62508;BME280;48556;51.972;4.624;2023-04-26T13:24:37;76053.00;;;-146.23;23.33
62508;BME280;48556;51.972;4.624;2023-04-26T13:28:25;76131.31;;;-146.23;24.14
62508;BME280;48556;51.972;4.624;2023-04-26T13:31:13;76087.16;;;-146.23;23.71
62508;BME280;48556;51.972;4.624;2023-04-26T13:34:21;75990.75;;;-146.23;23.12
62508;BME280;48556;51.972;4.624;2023-04-26T13:36:46;76151.41;;;-146.23;23.80
62508;BME280;48556;51.972;4.624;2023-04-26T13:39:34;76251.81;;;-146.23;24.09
62508;BME280;48556;51.972;4.624;2023-04-26T13:42:08;76175.50;;;-146.23;23.94
62508;BME280;48556;51.972;4.624;2023-04-26T13:44:43;76197.59;;;-146.23;24.36
62508;BME280;48556;51.972;4.624;2023-04-26T13:47:09;76083.13;;;-146.23;23.69
62508;BME280;48556;51.972;4.624;2023-04-26T13:49:46;76133.34;;;-146.23;23.78
62508;BME280;48556;51.972;4.624;2023-04-26T13:53:05;76141.38;;;-146.23;24.06
62508;BME280;48556;51.972;4.624;2023-04-26T13:56:28;76195.59;;;-146.23;23.88
62508;BME280;48556;51.972;4.624;2023-04-26T13:59:11;76157.44;;;-146.23;23.61
62508;BME280;48556;51.972;4.624;2023-04-26T14:01:57;76135.34;;;-146.23;23.46
62508;BME280;48556;51.972;4.624;2023-04-26T14:04:57;76193.56;;;-146.23;24.20
62508;BME280;48556;51.972;4.624;2023-04-26T14:07:23;76304.03;;;-146.23;25.13
62508;BME280;48556;51.972;4.624;2023-04-26T14:09:50;76434.56;;;-146.23;25.14
62508;BME280;48556;51.972;4.624;2023-04-26T14:12:16;76474.72;;;-146.23;25.58
62508;BME280;48556;51.972;4.624;2023-04-26T14:14:58;76496.81;;;-146.23;25.63
62508;BME280;48556;51.972;4.624;2023-04-26T14:18:06;76565.09;;;-146.23;26.12
62508;BME280;48556;51.972;4.624;2023-04-26T14:20:32;76657.50;;;-146.23;26.59
62508;BME280;48556;51.972;4.624;2023-04-26T14:23:34;76571.13;;;-146.23;26.09
62508;BME280;48556;51.972;4.624;2023-04-26T14:27:13;76536.97;;;-146.23;26.00
62508;BME280;48556;51.972;4.624;2023-04-26T14:30:19;76454.66;;;-146.23;25.70
62508;BME280;48556;51.972;4.624;2023-04-26T14:33:11;76412.47;;;-146.23;25.21
62508;BME280;48556;51.972;4.624;2023-04-26T14:35:38;76444.59;;;-146.23;25.61
62508;BME280;48556;51.972;4.624;2023-04-26T14:38:19;76400.41;;;-146.23;25.18
62508;BME280;48556;51.972;4.624;2023-04-26T14:40:48;76350.22;;;-146.23;25.17
62508;BME280;48556;51.972;4.624;2023-04-26T14:43:20;76360.25;;;-146.23;25.76
62508;BME280;48556;51.972;4.624;2023-04-26T14:45:46;76336.16;;;-146.23;25.50
62508;BME280;48556;51.972;4.624;2023-04-26T14:48:12;76340.19;;;-146.23;25.59
62508;BME280;48556;51.972;4.624;2023-04-26T14:50:38;76298.00;;;-146.23;25.12
62508;BME280;48556;51.972;4.624;2023-04-26T14:53:41;76183.53;;;-146.23;24.83
62508;BME280;48556;51.972;4.624;2023-04-26T14:56:09;76205.63;;;-146.23;25.27
62508;BME280;48556;51.972;4.624;2023-04-26T14:59:04;76223.69;;;-146.23;25.22
62508;BME280;48556;51.972;4.624;2023-04-26T15:01:33;76269.88;;;-146.23;26.02
62508;BME280;48556;51.972;4.624;2023-04-26T15:04:02;76099.19;;;-146.23;25.18
62508;BME280;48556;51.972;4.624;2023-04-26T15:06:28;76223.69;;;-146.23;25.12
62508;BME280;48556;51.972;4.624;2023-04-26T15:08:56;76193.56;;;-146.23;25.11
62508;BME280;48556;51.972;4.624;2023-04-26T15:11:24;76175.50;;;-146.23;24.84
62508;BME280;48556;51.972;4.624;2023-04-26T15:14:31;76324.09;;;-146.23;26.12
62508;BME280;48556;51.972;4.624;2023-04-26T15:17:02;76400.41;;;-146.23;26.44
62508;BME280;48556;51.972;4.624;2023-04-26T15:19:27;76328.13;;;-146.23;26.56
62508;BME280;48556;51.972;4.624;2023-04-26T15:21:53;76374.31;;;-146.23;26.71
62508;BME280;48556;51.972;4.624;2023-04-26T15:24:23;76432.56;;;-146.23;27.28
62508;BME280;48556;51.972;4.624;2023-04-26T15:27:00;76350.22;;;-146.23;26.84
62508;BME280;48556;51.972;4.624;2023-04-26T15:29:25;76350.22;;;-146.23;26.63
62508;BME280;48556;51.972;4.624;2023-04-26T15:31:52;76420.50;;;-146.23;27.01
62508;BME280;48556;51.972;4.624;2023-04-26T15:34:17;76468.69;;;-146.23;27.48
62508;BME280;48556;51.972;4.624;2023-04-26T15:37:19;76478.75;;;-146.23;27.42
62508;BME280;48556;51.972;4.624;2023-04-26T15:40:02;76398.41;;;-146.23;27.03
62508;BME280;48556;51.972;4.624;2023-04-26T15:42:30;76454.66;;;-146.23;27.24
62508;BME280;48556;51.972;4.624;2023-04-26T15:45:09;76233.75;;;-146.23;26.28
62508;BME280;48556;51.972;4.624;2023-04-26T15:47:35;76127.31;;;-146.23;25.28
62508;BME280;48556;51.972;4.624;2023-04-26T15:50:20;76243.78;;;-146.23;25.54
62508;BME280;48556;51.972;4.624;2023-04-26T15:52:46;76195.59;;;-146.23;25.24
62508;BME280;48556;51.972;4.624;2023-04-26T15:55:12;76255.81;;;-146.23;25.94
62508;BME280;48556;51.972;4.624;2023-04-26T15:57:41;76308.03;;;-146.23;25.91
62508;BME280;48556;51.972;4.624;2023-04-26T16:00:07;76306.03;;;-146.23;26.02
62508;BME280;48556;51.972;4.624;2023-04-26T16:02:34;76247.78;;;-146.23;25.77
62508;BME280;48556;51.972;4.624;2023-04-26T16:05:00;76336.16;;;-146.23;26.56
62508;BME280;48556;51.972;4.624;2023-04-26T16:07:25;76406.44;;;-146.23;26.80
62508;BME280;48556;51.972;4.624;2023-04-26T16:10:40;76364.28;;;-146.23;26.63
62508;BME280;48556;51.972;4.624;2023-04-26T16:13:28;76474.72;;;-146.23;27.37
62508;BME280;48556;51.972;4.624;2023-04-26T16:19:03;76645.44;;;-146.23;28.14
62508;BME280;48556;51.972;4.624;2023-04-26T16:21:36;76585.19;;;-146.23;28.48
62508;BME280;48556;51.972;4.624;2023-04-26T16:24:18;76653.47;;;-146.23;28.94
62508;BME280;48556;51.972;4.624;2023-04-26T16:26:54;76609.28;;;-146.23;28.61
62508;BME280;48556;51.972;4.624;2023-04-26T16:29:29;76613.31;;;-146.23;28.85
62508;BME280;48556;51.972;4.624;2023-04-26T16:32:04;76631.38;;;-146.23;28.98
62508;BME280;48556;51.972;4.624;2023-04-26T16:34:30;76679.59;;;-146.23;29.28
62508;BME280;48556;51.972;4.624;2023-04-26T16:37:24;76681.59;;;-146.23;29.37
62508;BME280;48556;51.972;4.624;2023-04-26T16:40:02;76733.81;;;-146.23;29.67
62508;BME280;48556;51.972;4.624;2023-04-26T16:42:30;76769.97;;;-146.23;29.97
62508;BME280;48556;51.972;4.624;2023-04-26T16:44:56;76850.28;;;-146.23;30.76
62508;BME280;48556;51.972;4.624;2023-04-26T16:47:22;76866.38;;;-146.23;31.24
62508;BME280;48556;51.972;4.624;2023-04-26T16:49:47;76910.56;;;-146.23;32.04
62508;BME280;48556;51.972;4.624;2023-04-26T16:52:13;76914.56;;;-146.23;31.54
62508;BME280;48556;51.972;4.624;2023-04-26T16:54:38;76912.56;;;-146.23;31.33
62508;BME280;48556;51.972;4.624;2023-04-26T16:57:04;76958.75;;;-146.23;31.83
62508;BME280;48556;51.972;4.624;2023-04-26T16:59:30;76954.75;;;-146.23;32.27
62508;BME280;48556;51.972;4.624;2023-04-26T17:02:21;76946.72;;;-146.23;31.82
62508;BME280;48556;51.972;4.624;2023-04-26T17:04:48;76986.88;;;-146.23;32.13
62508;BME280;48556;51.972;4.624;2023-04-26T17:07:39;77031.06;;;-146.23;32.44
62508;BME280;48556;51.972;4.624;2023-04-26T17:10:20;77010.97;;;-146.23;32.07
62508;BME280;48556;51.972;4.624;2023-04-26T17:12:46;77051.16;;;-146.23;32.51
62508;BME280;48556;51.972;4.624;2023-04-26T17:15:12;77063.19;;;-146.23;32.45
62508;BME280;48556;51.972;4.624;2023-04-26T17:17:38;77103.38;;;-146.23;32.81
62508;BME280;48556;51.972;4.624;2023-04-26T17:20:57;77143.56;;;-146.23;33.16
62508;BME280;48556;51.972;4.624;2023-04-26T17:23:23;77123.47;;;-146.23;33.03
62508;BME280;48556;51.972;4.624;2023-04-26T17:25:49;77151.59;;;-146.23;33.32
62508;BME280;48556;51.972;4.624;2023-04-26T17:28:25;77185.72;;;-146.23;33.61
62508;BME280;48556;51.972;4.624;2023-04-26T17:31:04;77199.78;;;-146.23;34.28
62508;BME280;48556;51.972;4.624;2023-04-26T17:33:55;77250.00;;;-146.23;35.17
62508;BME280;48556;51.972;4.624;2023-04-26T17:36:47;77239.97;;;-146.23;35.17
62508;BME280;48556;51.972;4.624;2023-04-26T17:39:13;77260.06;;;-146.23;35.35
62508;BME280;48556;51.972;4.624;2023-04-26T17:41:39;77268.09;;;-146.23;35.49
62508;BME280;48556;51.972;4.624;2023-04-26T17:44:05;77217.88;;;-146.23;35.24
62508;BME280;48556;51.972;4.624;2023-04-26T17:47:14;77278.13;;;-146.23;35.71
62508;BME280;48556;51.972;4.624;2023-04-26T17:50:02;77284.16;;;-146.23;36.01
62508;BME280;48556;51.972;4.624;2023-04-26T17:52:56;77292.19;;;-146.23;36.33
62508;BME280;48556;51.972;4.624;2023-04-26T17:56:07;77276.13;;;-146.23;36.18
62508;BME280;48556;51.972;4.624;2023-04-26T17:59:25;77316.28;;;-146.23;36.05
62508;BME280;48556;51.972;4.624;2023-04-26T18:01:51;77328.34;;;-146.23;36.14
62508;BME280;48556;51.972;4.624;2023-04-26T18:05:03;77292.19;;;-146.23;36.03
62508;BME280;48556;51.972;4.624;2023-04-26T18:08:14;77308.25;;;-146.23;36.48
62508;BME280;48556;51.972;4.624;2023-04-26T18:11:08;77302.22;;;-146.23;36.78
62508;BME280;48556;51.972;4.624;2023-04-26T18:14:28;77278.13;;;-146.23;36.44
62508;BME280;48556;51.972;4.624;2023-04-26T18:17:22;77352.44;;;-146.23;37.03
62508;BME280;48556;51.972;4.624;2023-04-26T18:20:35;77298.22;;;-146.23;36.68
62508;BME280;48556;51.972;4.624;2023-04-26T18:23:19;77384.59;;;-146.23;37.32
62508;BME280;48556;51.972;4.624;2023-04-26T18:26:32;77296.22;;;-146.23;36.38
62508;BME280;48556;51.972;4.624;2023-04-26T18:29:03;77292.19;;;-146.23;36.02
62508;BME280;48556;51.972;4.624;2023-04-26T18:31:36;77308.25;;;-146.23;36.11
62508;BME280;48556;51.972;4.624;2023-04-26T18:34:28;77298.22;;;-146.23;36.16
62508;BME280;48556;51.972;4.624;2023-04-26T18:37:34;77268.09;;;-146.23;35.94
62508;BME280;48556;51.972;4.624;2023-04-26T18:40:16;77306.25;;;-146.23;36.52
62508;BME280;48556;51.972;4.624;2023-04-26T18:42:42;77304.25;;;-146.23;36.52
62508;BME280;48556;51.972;4.624;2023-04-26T18:45:09;77330.34;;;-146.23;36.54
62508;BME280;48556;51.972;4.624;2023-04-26T18:47:35;77316.28;;;-146.23;36.80
62508;BME280;48556;51.972;4.624;2023-04-26T18:50:21;77354.47;;;-146.23;37.14
62508;BME280;48556;51.972;4.624;2023-04-26T18:53:08;77344.41;;;-146.23;37.04
62508;BME280;48556;51.972;4.624;2023-04-26T18:55:51;77360.50;;;-146.23;37.27
62508;BME280;48556;51.972;4.624;2023-04-26T18:58:20;77360.50;;;-146.23;37.41
62508;BME280;48556;51.972;4.624;2023-04-26T19:01:19;77340.41;;;-146.23;37.31
62508;BME280;48556;51.972;4.624;2023-04-26T19:04:00;77334.38;;;-146.23;37.41
62508;BME280;48556;51.972;4.624;2023-04-26T19:06:47;77352.44;;;-146.23;37.09
62508;BME280;48556;51.972;4.624;2023-04-26T19:09:18;77388.59;;;-146.23;37.16
62508;BME280;48556;51.972;4.624;2023-04-26T19:11:47;77392.63;;;-146.23;37.27
62508;BME280;48556;51.972;4.624;2023-04-26T19:14:44;77424.75;;;-146.23;37.52
62508;BME280;48556;51.972;4.624;2023-04-26T19:17:40;77406.69;;;-146.23;37.45
62508;BME280;48556;51.972;4.624;2023-04-26T19:20:07;77402.66;;;-146.23;37.46
62508;BME280;48556;51.972;4.624;2023-04-26T19:23:11;77396.66;;;-146.23;37.32
62508;BME280;48556;51.972;4.624;2023-04-26T19:25:46;77348.44;;;-146.23;36.87
62508;BME280;48556;51.972;4.624;2023-04-26T19:28:51;77428.78;;;-146.23;37.30
62508;BME280;48556;51.972;4.624;2023-04-26T19:31:18;77434.81;;;-146.23;37.37
62508;BME280;48556;51.972;4.624;2023-04-26T19:33:44;77428.78;;;-146.23;37.63
62508;BME280;48556;51.972;4.624;2023-04-26T19:36:55;77444.84;;;-146.23;37.87
62508;BME280;48556;51.972;4.624;2023-04-26T19:39:37;77432.81;;;-146.23;37.59